sensor_id;sensor_type;location;lat;lon;timestamp;pressure;altitude;pressure_sealevel;temperature;humidity
55517;BME280;41724;51.176;-0.708;2022-11-27T00:00:31;101138.21;;;9.59;88.56
55517;BME280;41724;51.176;-0.708;2022-11-27T00:02:58;101144.00;;;10.26;87.29
55517;BME280;41724;51.176;-0.708;2022-11-27T00:05:25;101133.24;;;9.72;87.80
55517;BME280;41724;51.176;-0.708;2022-11-27T00:07:52;101129.54;;;10.19;86.35
55517;BME280;41724;51.176;-0.708;2022-11-27T00:10:19;101124.29;;;10.05;86.58
55517;BME280;41724;51.176;-0.708;2022-11-27T00:12:46;101121.99;;;10.55;85.92
55517;BME280;41724;51.176;-0.708;2022-11-27T00:15:13;101132.37;;;10.74;84.51
55517;BME280;41724;51.176;-0.708;2022-11-27T00:17:40;101121.15;;;10.71;85.24
55517;BME280;41724;51.176;-0.708;2022-11-27T00:20:08;101116.74;;;10.49;87.61
55517;BME280;41724;51.176;-0.708;2022-11-27T00:22:35;101113.51;;;10.54;85.56
55517;BME280;41724;51.176;-0.708;2022-11-27T00:25:03;101109.31;;;10.62;86.08
55517;BME280;41724;51.176;-0.708;2022-11-27T00:27:30;101108.84;;;11.06;83.78
55517;BME280;41724;51.176;-0.708;2022-11-27T00:29:58;101107.94;;;9.99;88.16
55517;BME280;41724;51.176;-0.708;2022-11-27T00:32:25;101106.33;;;10.04;88.30
55517;BME280;41724;51.176;-0.708;2022-11-27T00:34:52;101101.76;;;9.85;91.75
55517;BME280;41724;51.176;-0.708;2022-11-27T00:37:19;101105.07;;;10.52;90.07
55517;BME280;41724;51.176;-0.708;2022-11-27T00:39:47;101101.74;;;10.38;89.64
55517;BME280;41724;51.176;-0.708;2022-11-27T00:42:14;101090.94;;;10.69;87.67
55517;BME280;41724;51.176;-0.708;2022-11-27T00:44:42;101094.52;;;10.65;87.03
55517;BME280;41724;51.176;-0.708;2022-11-27T00:47:09;101091.05;;;9.83;94.30
55517;BME280;41724;51.176;-0.708;2022-11-27T00:49:36;101095.82;;;10.76;87.32
55517;BME280;41724;51.176;-0.708;2022-11-27T00:52:03;101089.30;;;10.52;89.31
55517;BME280;41724;51.176;-0.708;2022-11-27T00:54:30;101087.98;;;10.84;87.28
55517;BME280;41724;51.176;-0.708;2022-11-27T00:56:57;101083.02;;;9.84;91.51
55517;BME280;41724;51.176;-0.708;2022-11-27T00:59:25;101080.30;;;10.54;89.73
55517;BME280;41724;51.176;-0.708;2022-11-27T01:01:52;101077.42;;;9.98;91.30
55517;BME280;41724;51.176;-0.708;2022-11-27T01:04:19;101078.21;;;10.44;88.81
55517;BME280;41724;51.176;-0.708;2022-11-27T01:06:49;101081.54;;;10.50;89.91
55517;BME280;41724;51.176;-0.708;2022-11-27T01:09:16;101075.29;;;10.61;90.10
55517;BME280;41724;51.176;-0.708;2022-11-27T01:11:43;101071.68;;;11.01;87.27
55517;BME280;41724;51.176;-0.708;2022-11-27T01:14:13;101073.85;;;10.04;92.73
55517;BME280;41724;51.176;-0.708;2022-11-27T01:16:40;101067.83;;;9.98;93.41
55517;BME280;41724;51.176;-0.708;2022-11-27T01:19:08;101061.87;;;11.36;88.02
55517;BME280;41724;51.176;-0.708;2022-11-27T01:21:36;101042.00;;;10.79;88.56
55517;BME280;41724;51.176;-0.708;2022-11-27T01:24:04;101042.68;;;11.71;86.33
55517;BME280;41724;51.176;-0.708;2022-11-27T01:26:32;101042.28;;;10.97;87.83
55517;BME280;41724;51.176;-0.708;2022-11-27T01:28:59;101043.62;;;11.44;87.03
55517;BME280;41724;51.176;-0.708;2022-11-27T01:31:27;101048.48;;;10.82;89.56
55517;BME280;41724;51.176;-0.708;2022-11-27T01:33:56;101043.45;;;11.27;87.91
55517;BME280;41724;51.176;-0.708;2022-11-27T01:36:24;101041.11;;;10.88;90.06
55517;BME280;41724;51.176;-0.708;2022-11-27T01:38:53;101041.94;;;11.44;88.23
55517;BME280;41724;51.176;-0.708;2022-11-27T01:41:21;101039.93;;;11.54;86.71
55517;BME280;41724;51.176;-0.708;2022-11-27T01:43:53;101037.44;;;11.13;90.08
55517;BME280;41724;51.176;-0.708;2022-11-27T01:46:29;101033.87;;;11.30;89.70
55517;BME280;41724;51.176;-0.708;2022-11-27T01:49:15;101028.10;;;11.48;86.49
55517;BME280;41724;51.176;-0.708;2022-11-27T01:51:53;101025.71;;;11.63;86.65
55517;BME280;41724;51.176;-0.708;2022-11-27T01:54:26;101025.69;;;11.67;86.17
55517;BME280;41724;51.176;-0.708;2022-11-27T01:57:04;101027.11;;;11.43;87.39
55517;BME280;41724;51.176;-0.708;2022-11-27T01:59:35;101029.86;;;11.85;87.43
55517;BME280;41724;51.176;-0.708;2022-11-27T02:02:03;101032.64;;;11.33;89.74
55517;BME280;41724;51.176;-0.708;2022-11-27T02:04:30;101029.30;;;11.48;89.74
55517;BME280;41724;51.176;-0.708;2022-11-27T02:06:58;101034.58;;;11.23;88.71
55517;BME280;41724;51.176;-0.708;2022-11-27T02:09:26;101030.01;;;11.53;89.27
55517;BME280;41724;51.176;-0.708;2022-11-27T02:11:59;101028.98;;;11.55;88.96
55517;BME280;41724;51.176;-0.708;2022-11-27T02:14:37;101030.80;;;11.44;91.42
55517;BME280;41724;51.176;-0.708;2022-11-27T02:17:12;101028.07;;;11.85;87.20
55517;BME280;41724;51.176;-0.708;2022-11-27T02:20:00;101030.18;;;11.44;88.40
55517;BME280;41724;51.176;-0.708;2022-11-27T02:22:52;101028.59;;;12.00;87.23
55517;BME280;41724;51.176;-0.708;2022-11-27T02:25:31;101027.74;;;12.02;86.80
55517;BME280;41724;51.176;-0.708;2022-11-27T02:28:19;101031.40;;;11.73;87.78
55517;BME280;41724;51.176;-0.708;2022-11-27T02:30:53;101032.63;;;11.78;87.82
55517;BME280;41724;51.176;-0.708;2022-11-27T02:33:24;101023.29;;;12.39;85.77
55517;BME280;41724;51.176;-0.708;2022-11-27T02:35:57;101023.00;;;12.49;85.19
55517;BME280;41724;51.176;-0.708;2022-11-27T02:38:30;101026.36;;;12.53;84.39
55517;BME280;41724;51.176;-0.708;2022-11-27T02:41:04;101020.33;;;12.53;83.40
55517;BME280;41724;51.176;-0.708;2022-11-27T02:43:39;101016.89;;;12.69;82.61
55517;BME280;41724;51.176;-0.708;2022-11-27T02:46:09;101021.88;;;12.16;85.51
55517;BME280;41724;51.176;-0.708;2022-11-27T02:48:38;101018.18;;;12.84;84.11
55517;BME280;41724;51.176;-0.708;2022-11-27T02:51:09;101013.49;;;12.97;83.03
55517;BME280;41724;51.176;-0.708;2022-11-27T02:53:40;101013.55;;;12.68;81.90
55517;BME280;41724;51.176;-0.708;2022-11-27T02:56:13;101010.30;;;13.47;79.55
55517;BME280;41724;51.176;-0.708;2022-11-27T02:58:45;101019.56;;;12.09;84.05
55517;BME280;41724;51.176;-0.708;2022-11-27T03:01:14;101014.49;;;12.41;84.04
55517;BME280;41724;51.176;-0.708;2022-11-27T03:03:46;100993.32;;;12.46;83.39
55517;BME280;41724;51.176;-0.708;2022-11-27T03:06:21;100993.10;;;12.91;81.90
55517;BME280;41724;51.176;-0.708;2022-11-27T03:08:56;100991.12;;;12.49;83.20
55517;BME280;41724;51.176;-0.708;2022-11-27T03:11:25;100981.78;;;13.14;80.85
55517;BME280;41724;51.176;-0.708;2022-11-27T03:13:54;100979.87;;;13.66;78.96
55517;BME280;41724;51.176;-0.708;2022-11-27T03:16:29;100979.10;;;13.73;77.49
55517;BME280;41724;51.176;-0.708;2022-11-27T03:19:04;100979.14;;;13.28;79.37
55517;BME280;41724;51.176;-0.708;2022-11-27T03:21:39;100984.65;;;13.33;79.11
55517;BME280;41724;51.176;-0.708;2022-11-27T03:24:07;100975.39;;;13.51;77.93
55517;BME280;41724;51.176;-0.708;2022-11-27T03:26:36;100970.52;;;13.77;77.02
55517;BME280;41724;51.176;-0.708;2022-11-27T03:29:06;100965.49;;;14.14;75.53
55517;BME280;41724;51.176;-0.708;2022-11-27T03:31:34;100964.60;;;14.05;76.45
55517;BME280;41724;51.176;-0.708;2022-11-27T03:34:01;100965.49;;;14.09;75.53
55517;BME280;41724;51.176;-0.708;2022-11-27T03:36:28;100969.70;;;13.62;78.23
55517;BME280;41724;51.176;-0.708;2022-11-27T03:38:56;100966.34;;;13.29;78.17
55517;BME280;41724;51.176;-0.708;2022-11-27T03:41:29;100966.52;;;13.63;77.64
55517;BME280;41724;51.176;-0.708;2022-11-27T03:44:05;100966.68;;;13.06;80.90
55517;BME280;41724;51.176;-0.708;2022-11-27T03:46:43;100961.65;;;14.26;76.98
55517;BME280;41724;51.176;-0.708;2022-11-27T03:49:32;100958.89;;;13.07;79.45
55517;BME280;41724;51.176;-0.708;2022-11-27T03:52:09;100963.81;;;13.99;76.64
55517;BME280;41724;51.176;-0.708;2022-11-27T03:54:49;100966.81;;;12.90;81.35
55517;BME280;41724;51.176;-0.708;2022-11-27T03:57:22;100964.48;;;13.08;81.39
55517;BME280;41724;51.176;-0.708;2022-11-27T03:59:57;100955.08;;;12.87;82.55
55517;BME280;41724;51.176;-0.708;2022-11-27T04:02:29;100956.29;;;13.34;81.04
55517;BME280;41724;51.176;-0.708;2022-11-27T04:04:56;100955.98;;;13.83;78.66
55517;BME280;41724;51.176;-0.708;2022-11-27T04:07:25;100961.20;;;13.23;80.92
55517;BME280;41724;51.176;-0.708;2022-11-27T04:09:52;100955.84;;;12.96;81.96
55517;BME280;41724;51.176;-0.708;2022-11-27T04:12:19;100953.80;;;13.32;81.28
55517;BME280;41724;51.176;-0.708;2022-11-27T04:14:46;100949.26;;;13.64;79.74
55517;BME280;41724;51.176;-0.708;2022-11-27T04:17:13;100953.60;;;13.00;80.71
55517;BME280;41724;51.176;-0.708;2022-11-27T04:19:40;100960.38;;;13.44;80.55
55517;BME280;41724;51.176;-0.708;2022-11-27T04:22:07;100964.00;;;12.60;85.42
55517;BME280;41724;51.176;-0.708;2022-11-27T04:24:34;100966.83;;;13.27;81.71
55517;BME280;41724;51.176;-0.708;2022-11-27T04:27:02;100964.89;;;12.81;83.30
55517;BME280;41724;51.176;-0.708;2022-11-27T04:29:29;100973.91;;;12.14;87.45
55517;BME280;41724;51.176;-0.708;2022-11-27T04:31:57;100969.92;;;12.49;86.23
55517;BME280;41724;51.176;-0.708;2022-11-27T04:34:24;100971.93;;;12.70;86.29
55517;BME280;41724;51.176;-0.708;2022-11-27T04:36:51;100976.99;;;12.72;84.80
55517;BME280;41724;51.176;-0.708;2022-11-27T04:39:18;100980.60;;;12.51;85.11
55517;BME280;41724;51.176;-0.708;2022-11-27T04:41:45;100978.58;;;13.25;82.73
55517;BME280;41724;51.176;-0.708;2022-11-27T04:44:12;100975.54;;;13.59;80.99
55517;BME280;41724;51.176;-0.708;2022-11-27T04:46:39;100973.29;;;13.13;81.54
55517;BME280;41724;51.176;-0.708;2022-11-27T04:49:06;100965.07;;;13.79;79.40
55517;BME280;41724;51.176;-0.708;2022-11-27T04:51:33;100970.60;;;14.17;77.57
55517;BME280;41724;51.176;-0.708;2022-11-27T04:54:00;100965.27;;;14.09;77.27
55517;BME280;41724;51.176;-0.708;2022-11-27T04:56:27;100968.65;;;13.81;78.44
55517;BME280;41724;51.176;-0.708;2022-11-27T04:58:54;100969.55;;;13.86;78.52
55517;BME280;41724;51.176;-0.708;2022-11-27T05:01:21;100971.26;;;14.47;76.26
55517;BME280;41724;51.176;-0.708;2022-11-27T05:03:48;100968.63;;;14.47;75.58
55517;BME280;41724;51.176;-0.708;2022-11-27T05:06:15;100960.97;;;15.03;73.09
55517;BME280;41724;51.176;-0.708;2022-11-27T05:08:42;100964.43;;;14.81;74.31
55517;BME280;41724;51.176;-0.708;2022-11-27T05:11:12;100964.82;;;14.89;73.88
55517;BME280;41724;51.176;-0.708;2022-11-27T05:13:40;100966.00;;;13.74;78.56
55517;BME280;41724;51.176;-0.708;2022-11-27T05:16:07;100966.58;;;13.93;77.93
55517;BME280;41724;51.176;-0.708;2022-11-27T05:18:35;100965.29;;;13.37;81.22
55517;BME280;41724;51.176;-0.708;2022-11-27T05:21:05;100964.82;;;13.34;81.17
55517;BME280;41724;51.176;-0.708;2022-11-27T05:23:33;100962.50;;;13.36;81.99
55517;BME280;41724;51.176;-0.708;2022-11-27T05:26:01;100954.55;;;13.44;80.05
55517;BME280;41724;51.176;-0.708;2022-11-27T05:28:28;100960.52;;;13.29;82.55
55517;BME280;41724;51.176;-0.708;2022-11-27T05:30:55;100957.15;;;13.75;80.15
55517;BME280;41724;51.176;-0.708;2022-11-27T05:33:22;100953.45;;;13.72;79.74
55517;BME280;41724;51.176;-0.708;2022-11-27T05:35:49;100951.35;;;14.13;79.53
55517;BME280;41724;51.176;-0.708;2022-11-27T05:38:16;100952.89;;;13.56;80.36
55517;BME280;41724;51.176;-0.708;2022-11-27T05:40:43;100950.77;;;13.97;78.93
55517;BME280;41724;51.176;-0.708;2022-11-27T05:43:10;100948.56;;;14.11;78.88
55517;BME280;41724;51.176;-0.708;2022-11-27T05:45:37;100945.91;;;14.55;76.31
55517;BME280;41724;51.176;-0.708;2022-11-27T05:48:04;100959.81;;;14.62;76.58
55517;BME280;41724;51.176;-0.708;2022-11-27T05:50:32;100960.44;;;14.41;77.01
55517;BME280;41724;51.176;-0.708;2022-11-27T05:52:59;100960.49;;;14.04;78.38
55517;BME280;41724;51.176;-0.708;2022-11-27T05:55:26;100960.39;;;14.06;78.39
55517;BME280;41724;51.176;-0.708;2022-11-27T05:57:53;100962.22;;;14.21;77.23
55517;BME280;41724;51.176;-0.708;2022-11-27T06:00:20;100968.12;;;14.35;76.78
55517;BME280;41724;51.176;-0.708;2022-11-27T06:02:47;100968.78;;;14.38;76.99
55517;BME280;41724;51.176;-0.708;2022-11-27T06:05:14;100960.60;;;14.67;75.69
55517;BME280;41724;51.176;-0.708;2022-11-27T06:07:41;100960.32;;;15.27;73.59
55517;BME280;41724;51.176;-0.708;2022-11-27T06:10:08;100968.07;;;15.40;73.04
55517;BME280;41724;51.176;-0.708;2022-11-27T06:12:36;100965.74;;;15.49;72.54
55517;BME280;41724;51.176;-0.708;2022-11-27T06:15:04;100964.36;;;14.73;74.18
55517;BME280;41724;51.176;-0.708;2022-11-27T06:17:31;100961.72;;;15.37;72.75
55517;BME280;41724;51.176;-0.708;2022-11-27T06:19:58;100963.08;;;15.12;71.93
55517;BME280;41724;51.176;-0.708;2022-11-27T06:22:25;100960.61;;;14.66;74.67
55517;BME280;41724;51.176;-0.708;2022-11-27T06:24:52;100963.71;;;15.30;71.90
55517;BME280;41724;51.176;-0.708;2022-11-27T06:27:19;100959.71;;;15.25;72.25
55517;BME280;41724;51.176;-0.708;2022-11-27T06:29:45;100966.98;;;15.25;71.57
55517;BME280;41724;51.176;-0.708;2022-11-27T06:32:12;100970.02;;;15.18;73.42
55517;BME280;41724;51.176;-0.708;2022-11-27T06:34:39;100958.47;;;15.13;73.40
55517;BME280;41724;51.176;-0.708;2022-11-27T06:37:06;100949.22;;;15.12;72.88
55517;BME280;41724;51.176;-0.708;2022-11-27T06:39:33;100941.16;;;15.16;73.12
55517;BME280;41724;51.176;-0.708;2022-11-27T06:42:00;100941.96;;;14.88;73.50
55517;BME280;41724;51.176;-0.708;2022-11-27T06:44:27;100936.31;;;15.20;72.98
55517;BME280;41724;51.176;-0.708;2022-11-27T06:46:54;100929.53;;;15.67;71.20
55517;BME280;41724;51.176;-0.708;2022-11-27T06:49:21;100941.46;;;15.51;71.34
55517;BME280;41724;51.176;-0.708;2022-11-27T06:51:48;100944.86;;;14.66;74.49
55517;BME280;41724;51.176;-0.708;2022-11-27T06:54:15;100939.01;;;15.10;73.83
55517;BME280;41724;51.176;-0.708;2022-11-27T06:56:42;100928.35;;;15.31;73.13
55517;BME280;41724;51.176;-0.708;2022-11-27T06:59:11;100935.99;;;14.96;73.58
55517;BME280;41724;51.176;-0.708;2022-11-27T07:01:38;100939.09;;;15.21;72.76
55517;BME280;41724;51.176;-0.708;2022-11-27T07:04:05;100929.52;;;15.14;73.24
55517;BME280;41724;51.176;-0.708;2022-11-27T07:06:32;100926.59;;;15.23;73.57
55517;BME280;41724;51.176;-0.708;2022-11-27T07:08:59;100923.84;;;14.82;73.02
55517;BME280;41724;51.176;-0.708;2022-11-27T07:11:29;100920.49;;;15.28;72.72
55517;BME280;41724;51.176;-0.708;2022-11-27T07:13:58;100915.76;;;15.02;72.58
55517;BME280;41724;51.176;-0.708;2022-11-27T07:16:26;100912.68;;;15.63;71.45
55517;BME280;41724;51.176;-0.708;2022-11-27T07:18:57;100908.50;;;15.13;72.05
55517;BME280;41724;51.176;-0.708;2022-11-27T07:21:25;100904.47;;;15.57;71.69
55517;BME280;41724;51.176;-0.708;2022-11-27T07:23:52;100907.13;;;14.70;74.43
55517;BME280;41724;51.176;-0.708;2022-11-27T07:26:21;100910.28;;;15.31;73.27
55517;BME280;41724;51.176;-0.708;2022-11-27T07:28:49;100909.65;;;14.90;72.88
55517;BME280;41724;51.176;-0.708;2022-11-27T07:31:17;100912.26;;;14.85;73.21
55517;BME280;41724;51.176;-0.708;2022-11-27T07:33:45;100914.59;;;14.69;74.46
55517;BME280;41724;51.176;-0.708;2022-11-27T07:36:16;100907.20;;;15.16;72.98
55517;BME280;41724;51.176;-0.708;2022-11-27T07:38:44;100913.05;;;14.69;73.72
55517;BME280;41724;51.176;-0.708;2022-11-27T07:41:12;100909.86;;;14.95;73.46
55517;BME280;41724;51.176;-0.708;2022-11-27T07:43:40;100911.84;;;15.10;71.93
55517;BME280;41724;51.176;-0.708;2022-11-27T07:46:11;100915.93;;;15.22;72.41
55517;BME280;41724;51.176;-0.708;2022-11-27T07:48:38;100912.25;;;15.58;71.00
55517;BME280;41724;51.176;-0.708;2022-11-27T07:51:06;100905.07;;;15.51;69.82
55517;BME280;41724;51.176;-0.708;2022-11-27T07:53:35;100908.25;;;15.63;69.53
55517;BME280;41724;51.176;-0.708;2022-11-27T07:56:03;100929.36;;;15.47;70.09
55517;BME280;41724;51.176;-0.708;2022-11-27T07:58:30;100922.82;;;15.59;69.68
55517;BME280;41724;51.176;-0.708;2022-11-27T08:00:58;100915.76;;;16.03;68.51
55517;BME280;41724;51.176;-0.708;2022-11-27T08:03:25;100902.96;;;15.84;67.99
55517;BME280;41724;51.176;-0.708;2022-11-27T08:05:53;100903.01;;;15.67;67.33
55517;BME280;41724;51.176;-0.708;2022-11-27T08:08:20;100914.11;;;15.93;66.58
55517;BME280;41724;51.176;-0.708;2022-11-27T08:10:47;100913.13;;;16.02;67.10
55517;BME280;41724;51.176;-0.708;2022-11-27T08:13:15;100902.11;;;15.94;66.96
55517;BME280;41724;51.176;-0.708;2022-11-27T08:15:42;100919.22;;;15.97;66.82
55517;BME280;41724;51.176;-0.708;2022-11-27T08:18:09;100931.13;;;15.67;67.95
55517;BME280;41724;51.176;-0.708;2022-11-27T08:20:36;100937.59;;;15.32;69.37
55517;BME280;41724;51.176;-0.708;2022-11-27T08:23:03;100942.42;;;16.02;69.06
55517;BME280;41724;51.176;-0.708;2022-11-27T08:25:30;100934.35;;;15.76;67.97
55517;BME280;41724;51.176;-0.708;2022-11-27T08:27:57;100933.36;;;15.81;66.81
55517;BME280;41724;51.176;-0.708;2022-11-27T08:30:24;100936.22;;;15.88;66.41
55517;BME280;41724;51.176;-0.708;2022-11-27T08:32:51;100937.18;;;15.95;66.15
55517;BME280;41724;51.176;-0.708;2022-11-27T08:35:18;100935.47;;;15.96;65.90
55517;BME280;41724;51.176;-0.708;2022-11-27T08:37:45;100942.27;;;15.76;67.32
55517;BME280;41724;51.176;-0.708;2022-11-27T08:40:12;100947.14;;;16.30;67.51
55517;BME280;41724;51.176;-0.708;2022-11-27T08:42:40;100942.62;;;15.17;69.77
55517;BME280;41724;51.176;-0.708;2022-11-27T08:45:07;100932.84;;;15.33;70.90
55517;BME280;41724;51.176;-0.708;2022-11-27T08:47:35;100930.43;;;15.30;70.32
55517;BME280;41724;51.176;-0.708;2022-11-27T08:50:02;100923.04;;;15.54;68.87
55517;BME280;41724;51.176;-0.708;2022-11-27T08:52:31;100929.66;;;15.46;70.01
55517;BME280;41724;51.176;-0.708;2022-11-27T08:54:58;100933.25;;;15.67;69.54
55517;BME280;41724;51.176;-0.708;2022-11-27T08:57:25;100933.18;;;15.58;69.99
55517;BME280;41724;51.176;-0.708;2022-11-27T08:59:52;100931.18;;;15.87;68.86
55517;BME280;41724;51.176;-0.708;2022-11-27T09:02:19;100939.32;;;15.79;68.83
55517;BME280;41724;51.176;-0.708;2022-11-27T09:04:46;100933.65;;;15.97;68.78
55517;BME280;41724;51.176;-0.708;2022-11-27T09:07:14;100926.78;;;16.13;67.42
55517;BME280;41724;51.176;-0.708;2022-11-27T09:09:42;100926.24;;;15.86;68.77
55517;BME280;41724;51.176;-0.708;2022-11-27T09:12:09;100927.56;;;16.26;67.62
55517;BME280;41724;51.176;-0.708;2022-11-27T09:14:36;100926.33;;;16.14;67.48
55517;BME280;41724;51.176;-0.708;2022-11-27T09:17:03;100925.01;;;16.40;67.13
55517;BME280;41724;51.176;-0.708;2022-11-27T09:19:30;100922.42;;;15.83;69.14
55517;BME280;41724;51.176;-0.708;2022-11-27T09:21:57;100916.04;;;16.11;68.04
55517;BME280;41724;51.176;-0.708;2022-11-27T09:24:25;100915.84;;;16.04;67.98
55517;BME280;41724;51.176;-0.708;2022-11-27T09:26:51;100910.00;;;16.23;67.69
55517;BME280;41724;51.176;-0.708;2022-11-27T09:29:19;100901.17;;;16.37;66.87
55517;BME280;41724;51.176;-0.708;2022-11-27T09:31:46;100896.87;;;16.26;66.78
55517;BME280;41724;51.176;-0.708;2022-11-27T09:34:14;100900.72;;;16.33;67.55
55517;BME280;41724;51.176;-0.708;2022-11-27T09:36:40;100897.09;;;16.38;67.67
55517;BME280;41724;51.176;-0.708;2022-11-27T09:39:07;100893.00;;;16.12;66.83
55517;BME280;41724;51.176;-0.708;2022-11-27T09:41:43;100887.06;;;16.52;67.05
55517;BME280;41724;51.176;-0.708;2022-11-27T09:44:28;100880.75;;;16.67;67.02
55517;BME280;41724;51.176;-0.708;2022-11-27T09:47:00;100876.95;;;16.58;67.14
55517;BME280;41724;51.176;-0.708;2022-11-27T09:49:38;100880.81;;;15.82;69.57
55517;BME280;41724;51.176;-0.708;2022-11-27T09:52:13;100878.04;;;15.88;69.07
55517;BME280;41724;51.176;-0.708;2022-11-27T09:54:49;100875.81;;;15.65;70.21
55517;BME280;41724;51.176;-0.708;2022-11-27T09:57:23;100881.63;;;15.57;69.90
55517;BME280;41724;51.176;-0.708;2022-11-27T09:59:53;100899.29;;;15.92;68.76
55517;BME280;41724;51.176;-0.708;2022-11-27T10:02:28;100913.54;;;15.30;70.28
55517;BME280;41724;51.176;-0.708;2022-11-27T10:04:56;100913.73;;;15.58;70.42
55517;BME280;41724;51.176;-0.708;2022-11-27T10:07:32;100913.19;;;16.09;69.07
55517;BME280;41724;51.176;-0.708;2022-11-27T10:10:11;100902.74;;;16.41;68.12
55517;BME280;41724;51.176;-0.708;2022-11-27T10:12:52;100894.01;;;16.35;67.64
55517;BME280;41724;51.176;-0.708;2022-11-27T10:15:32;100882.23;;;16.72;67.21
55517;BME280;41724;51.176;-0.708;2022-11-27T10:18:09;100882.66;;;16.84;66.68
55517;BME280;41724;51.176;-0.708;2022-11-27T10:20:41;100886.49;;;16.61;66.89
55517;BME280;41724;51.176;-0.708;2022-11-27T10:23:19;100885.05;;;16.66;66.99
55517;BME280;41724;51.176;-0.708;2022-11-27T10:25:50;100883.02;;;16.33;66.51
55517;BME280;41724;51.176;-0.708;2022-11-27T10:28:25;100885.46;;;16.51;66.99
55517;BME280;41724;51.176;-0.708;2022-11-27T10:30:57;100891.59;;;16.51;66.27
55517;BME280;41724;51.176;-0.708;2022-11-27T10:33:33;100889.11;;;16.37;67.02
55517;BME280;41724;51.176;-0.708;2022-11-27T10:36:02;100876.15;;;16.66;68.30
55517;BME280;41724;51.176;-0.708;2022-11-27T10:38:33;100863.21;;;16.79;67.05
55517;BME280;41724;51.176;-0.708;2022-11-27T10:41:05;100856.16;;;16.58;66.88
55517;BME280;41724;51.176;-0.708;2022-11-27T10:43:34;100847.94;;;17.02;67.18
55517;BME280;41724;51.176;-0.708;2022-11-27T10:46:04;100836.74;;;16.79;67.16
55517;BME280;41724;51.176;-0.708;2022-11-27T10:48:36;100844.32;;;16.82;67.56
55517;BME280;41724;51.176;-0.708;2022-11-27T10:51:11;100850.85;;;16.26;69.40
55517;BME280;41724;51.176;-0.708;2022-11-27T10:53:45;100851.78;;;16.22;68.52
55517;BME280;41724;51.176;-0.708;2022-11-27T10:56:39;100848.12;;;15.84;71.00
55517;BME280;41724;51.176;-0.708;2022-11-27T10:59:11;100844.61;;;15.88;69.81
55517;BME280;41724;51.176;-0.708;2022-11-27T11:01:42;100838.75;;;16.32;68.93
55517;BME280;41724;51.176;-0.708;2022-11-27T11:04:11;100838.44;;;14.79;74.06
55517;BME280;41724;51.176;-0.708;2022-11-27T11:06:41;100835.35;;;15.46;72.33
55517;BME280;41724;51.176;-0.708;2022-11-27T11:09:14;100830.26;;;16.16;70.50
55517;BME280;41724;51.176;-0.708;2022-11-27T11:11:44;100824.46;;;16.54;69.82
55517;BME280;41724;51.176;-0.708;2022-11-27T11:14:17;100817.29;;;16.38;69.56
55517;BME280;41724;51.176;-0.708;2022-11-27T11:16:45;100819.62;;;17.04;67.92
55517;BME280;41724;51.176;-0.708;2022-11-27T11:19:30;100825.68;;;16.94;67.93
55517;BME280;41724;51.176;-0.708;2022-11-27T11:22:03;100819.57;;;16.49;66.88
55517;BME280;41724;51.176;-0.708;2022-11-27T11:24:33;100822.09;;;16.81;66.72
55517;BME280;41724;51.176;-0.708;2022-11-27T11:27:05;100824.78;;;16.72;67.47
55517;BME280;41724;51.176;-0.708;2022-11-27T11:29:44;100822.33;;;16.75;67.24
55517;BME280;41724;51.176;-0.708;2022-11-27T11:32:19;100818.29;;;17.28;66.99
55517;BME280;41724;51.176;-0.708;2022-11-27T11:34:50;100813.12;;;17.05;66.81
55517;BME280;41724;51.176;-0.708;2022-11-27T11:37:22;100816.50;;;16.62;66.91
55517;BME280;41724;51.176;-0.708;2022-11-27T11:39:55;100817.53;;;16.88;66.56
55517;BME280;41724;51.176;-0.708;2022-11-27T11:42:24;100816.49;;;16.55;65.57
55517;BME280;41724;51.176;-0.708;2022-11-27T11:44:54;100818.33;;;16.29;68.64
55517;BME280;41724;51.176;-0.708;2022-11-27T11:47:23;100819.23;;;16.30;69.10
55517;BME280;41724;51.176;-0.708;2022-11-27T11:49:51;100813.46;;;16.34;68.78
55517;BME280;41724;51.176;-0.708;2022-11-27T11:52:31;100813.65;;;16.59;67.50
55517;BME280;41724;51.176;-0.708;2022-11-27T11:55:09;100812.76;;;16.52;67.96
55517;BME280;41724;51.176;-0.708;2022-11-27T11:58:53;100813.54;;;16.70;68.08
55517;BME280;41724;51.176;-0.708;2022-11-27T12:01:35;100814.08;;;16.12;68.71
55517;BME280;41724;51.176;-0.708;2022-11-27T12:04:26;100803.27;;;16.85;67.61
55517;BME280;41724;51.176;-0.708;2022-11-27T12:07:01;100791.38;;;16.17;68.72
55517;BME280;41724;51.176;-0.708;2022-11-27T12:09:45;100784.45;;;16.80;68.05
55517;BME280;41724;51.176;-0.708;2022-11-27T12:12:27;100781.08;;;16.08;69.03
55517;BME280;41724;51.176;-0.708;2022-11-27T12:15:03;100768.64;;;16.22;68.69
55517;BME280;41724;51.176;-0.708;2022-11-27T12:17:49;100760.79;;;16.73;68.91
55517;BME280;41724;51.176;-0.708;2022-11-27T12:20:20;100754.06;;;16.18;68.72
55517;BME280;41724;51.176;-0.708;2022-11-27T12:23:25;100744.18;;;16.27;69.12
55517;BME280;41724;51.176;-0.708;2022-11-27T12:26:05;100740.13;;;15.76;70.47
55517;BME280;41724;51.176;-0.708;2022-11-27T12:28:46;100736.93;;;15.89;70.98
55517;BME280;41724;51.176;-0.708;2022-11-27T12:31:30;100735.39;;;16.77;68.92
55517;BME280;41724;51.176;-0.708;2022-11-27T12:34:06;100740.79;;;16.52;68.39
55517;BME280;41724;51.176;-0.708;2022-11-27T12:36:57;100740.85;;;15.78;71.01
55517;BME280;41724;51.176;-0.708;2022-11-27T12:39:33;100731.40;;;16.06;70.75
55517;BME280;41724;51.176;-0.708;2022-11-27T12:42:16;100728.68;;;16.27;69.85
55517;BME280;41724;51.176;-0.708;2022-11-27T12:44:53;100727.71;;;16.12;69.91
55517;BME280;41724;51.176;-0.708;2022-11-27T12:47:26;100719.71;;;16.14;69.94
55517;BME280;41724;51.176;-0.708;2022-11-27T12:49:57;100718.21;;;16.58;68.97
55517;BME280;41724;51.176;-0.708;2022-11-27T12:52:31;100713.91;;;16.64;68.40
55517;BME280;41724;51.176;-0.708;2022-11-27T12:55:04;100705.46;;;16.77;67.87
55517;BME280;41724;51.176;-0.708;2022-11-27T12:57:38;100707.60;;;16.42;68.50